Time;durP1;ratioP1;P1;durP2;ratioP2;P2;SDS_P1;SDS_P2;PMS_P1;PMS_P2;Temp;Humidity;BMP_temperature;BMP_pressure;BME280_temperature;BME280_humidity;BME280_pressure;Samples;Min_cycle;Max_cycle;Signal;HPM_P1;HPM_P2
2022/05/19 00:00:30;;;;;;;;;;;;;;;;;;5050537;28;19916;-44
2022/05/19 00:02:56;;;;;;;;;;;;;;;;;;5050596;28;19909;-49
2022/05/19 00:05:23;;;;;;;;;;;;;;;;;;5050332;28;20546;-49
2022/05/19 00:07:49;;;;;;;;;;;;;;;;;;5050671;28;20428;-43
2022/05/19 00:10:16;;;;;;;;;;;;;;;;;;5050526;28;19909;-53
2022/05/19 00:12:42;;;;;;;;;;;;;;;;;;5050638;28;19917;-48
2022/05/19 00:15:08;;;;;;;;;;;;;;;;;;5050799;28;20009;-47
2022/05/19 00:17:35;;;;;;;;;;;;;;;;;;5051763;28;19909;-52
2022/05/19 00:20:01;;;;;;;;;;;;;;;;;;5052018;28;19909;-57
2022/05/19 00:22:28;;;;;;;;;;;;;;;;;;5052076;28;19940;-49
2022/05/19 00:24:54;;;;;;;;;;;;;;;;;;5051169;28;19909;-44
2022/05/19 00:27:21;;;;;;;;;;;;;;;;;;5051653;28;20283;-46
2022/05/19 00:29:47;;;;;;;;;;;;;;;;;;5051884;28;20103;-52
2022/05/19 00:32:14;;;;;;;;;;;;;;;;;;5051854;28;20320;-54
2022/05/19 00:34:40;;;;;;;;;;;;;;;;;;5055555;28;20358;-51
2022/05/19 00:37:07;;;;;;;;;;;;;;;;;;5055848;28;19904;-54
2022/05/19 00:39:33;;;;;;;;;;;;;;;;;;5055718;28;19944;-47
2022/05/19 00:44:44;;;;;;;;;;;;;;;;;;5055706;28;19978;-46
2022/05/19 00:47:10;;;;;;;;;;;;;;;;;;5055995;28;19921;-51
2022/05/19 00:49:37;;;;;;;;;;;;;;;;;;5055693;28;19908;-45
2022/05/19 00:52:03;;;;;;;;;;;;;;;;;;5055707;28;19909;-51
2022/05/19 00:54:30;;;;;;;;;;;;;;;;;;5055470;28;20329;-54
2022/05/19 00:56:56;;;;;;;;;;;;;;;;;;5055071;28;20252;-43
2022/05/19 00:59:23;;;;;;;;;;;;;;;;;;5055475;28;19909;-49
2022/05/19 01:01:49;;;;;;;;;;;;;;;;;;5055433;28;19909;-48
2022/05/19 01:04:16;;;;;;;;;;;;;;;;;;5054642;28;20378;-48
2022/05/19 01:06:42;;;;;;;;;;;;;;;;;;5055278;28;20436;-44
2022/05/19 01:09:09;;;;;;;;;;;;;;;;;;5055041;28;19909;-52
2022/05/19 01:11:38;;;;;;;;;;;;;;;;;;5054576;28;19918;-47
2022/05/19 01:14:05;;;;;;;;;;;;;;;;;;5054677;28;20382;-43
2022/05/19 01:16:32;;;;;;;;;;;;;;;;;;5054316;28;20332;-49
2022/05/19 01:18:58;;;;;;;;;;;;;;;;;;5055074;28;20342;-49
2022/05/19 01:21:25;;;;;;;;;;;;;;;;;;5064453;28;20278;-54
2022/05/19 01:23:51;;;;;;;;;;;;;;;;;;5075288;28;19932;-52
2022/05/19 01:26:18;;;;;;;;;;;;;;;;;;5074890;28;19936;-57
2022/05/19 01:28:44;;;;;;;;;;;;;;;;;;5074863;28;19954;-53
2022/05/19 01:31:10;;;;;;;;;;;;;;;;;;5074444;28;19912;-52
2022/05/19 01:33:37;;;;;;;;;;;;;;;;;;5074700;28;19936;-55
2022/05/19 01:36:04;;;;;;;;;;;;;;;;;;5074899;28;19908;-52
2022/05/19 01:38:30;;;;;;;;;;;;;;;;;;5074555;28;20003;-53
2022/05/19 01:40:57;;;;;;;;;;;;;;;;;;5075667;28;19909;-55
2022/05/19 01:43:24;;;;;;;;;;;;;;;;;;5073752;28;19908;-54
2022/05/19 01:45:50;;;;;;;;;;;;;;;;;;5075133;28;19917;-58
2022/05/19 01:48:17;;;;;;;;;;;;;;;;;;5074652;28;19908;-56
2022/05/19 01:50:44;;;;;;;;;;;;;;;;;;5073936;28;20073;-57
2022/05/19 01:53:11;;;;;;;;;;;;;;;;;;5074551;28;19914;-47
2022/05/19 01:55:37;;;;;;;;;;;;;;;;;;5074321;28;20351;-51
2022/05/19 01:58:03;;;;;;;;;;;;;;;;;;5074513;28;20331;-52
2022/05/19 02:00:30;;;;;;;;;;;;;;;;;;5074184;28;20320;-52
2022/05/19 02:02:56;;;;;;;;;;;;;;;;;;5074257;28;20369;-54
2022/05/19 02:05:23;;;;;;;;;;;;;;;;;;5074341;28;19912;-54
2022/05/19 02:07:49;;;;;;;;;;;;;;;;;;5074411;28;19912;-60
2022/05/19 02:10:16;;;;;;;;;;;;;;;;;;5074498;28;19948;-56
2022/05/19 02:12:42;;;;;;;;;;;;;;;;;;5073884;28;19946;-51
2022/05/19 02:15:09;;;;;;;;;;;;;;;;;;5074121;28;19916;-55
2022/05/19 02:17:35;;;;;;;;;;;;;;;;;;5072692;28;19908;-47
2022/05/19 02:20:03;;;;;;;;;;;;;;;;;;5074141;28;19909;-51
2022/05/19 02:22:29;;;;;;;;;;;;;;;;;;5073793;28;19909;-49
2022/05/19 02:24:56;;;;;;;;;;;;;;;;;;5074062;28;19912;-48
2022/05/19 02:27:22;;;;;;;;;;;;;;;;;;5072246;28;19916;-49
2022/05/19 02:29:48;;;;;;;;;;;;;;;;;;5073298;28;20108;-50
2022/05/19 02:32:15;;;;;;;;;;;;;;;;;;5057406;28;20236;-48
2022/05/19 02:34:41;;;;;;;;;;;;;;;;;;5047430;28;19913;-41
2022/05/19 02:37:08;;;;;;;;;;;;;;;;;;5040980;28;20002;-45
2022/05/19 02:39:34;;;;;;;;;;;;;;;;;;5051449;28;20271;-51
2022/05/19 02:42:01;;;;;;;;;;;;;;;;;;5052758;28;19909;-59
2022/05/19 02:44:27;;;;;;;;;;;;;;;;;;5052745;28;19908;-44
2022/05/19 02:46:54;;;;;;;;;;;;;;;;;;5048319;28;19924;-47
2022/05/19 02:49:20;;;;;;;;;;;;;;;;;;5050187;28;19913;-55
2022/05/19 02:51:46;;;;;;;;;;;;;;;;;;5052620;28;19909;-52
2022/05/19 02:54:13;;;;;;;;;;;;;;;;;;5051244;28;19974;-47
2022/05/19 02:56:39;;;;;;;;;;;;;;;;;;5049782;28;19940;-44
2022/05/19 02:59:06;;;;;;;;;;;;;;;;;;5047511;28;19909;-55
2022/05/19 03:01:32;;;;;;;;;;;;;;;;;;5051482;28;20386;-48
2022/05/19 03:03:59;;;;;;;;;;;;;;;;;;5051479;28;19913;-57
2022/05/19 03:06:25;;;;;;;;;;;;;;;;;;5051151;28;19920;-58
2022/05/19 03:08:52;;;;;;;;;;;;;;;;;;5047652;28;20299;-54
2022/05/19 03:11:18;;;;;;;;;;;;;;;;;;5052811;28;20089;-56
2022/05/19 03:13:45;;;;;;;;;;;;;;;;;;5052110;28;19944;-54
2022/05/19 03:16:11;;;;;;;;;;;;;;;;;;5050768;28;19919;-50
2022/05/19 03:18:38;;;;;;;;;;;;;;;;;;5050700;28;19913;-41
2022/05/19 03:21:04;;;;;;;;;;;;;;;;;;5049632;28;19913;-55
2022/05/19 03:23:30;;;;;;;;;;;;;;;;;;5051384;28;19913;-59
2022/05/19 03:25:57;;;;;;;;;;;;;;;;;;5052130;28;19913;-58
2022/05/19 03:28:23;;;;;;;;;;;;;;;;;;5049672;28;19991;-54
2022/05/19 03:30:50;;;;;;;;;;;;;;;;;;5050344;28;19919;-50
2022/05/19 03:33:16;;;;;;;;;;;;;;;;;;5050682;28;20007;-58
2022/05/19 03:35:43;;;;;;;;;;;;;;;;;;5051193;28;20290;-58
2022/05/19 03:38:10;;;;;;;;;;;;;;;;;;5047668;28;19916;-47
2022/05/19 03:40:36;;;;;;;;;;;;;;;;;;5050157;28;19916;-52
2022/05/19 03:43:03;;;;;;;;;;;;;;;;;;5050886;28;19935;-48
2022/05/19 03:45:29;;;;;;;;;;;;;;;;;;5050841;28;19962;-48
2022/05/19 03:47:56;;;;;;;;;;;;;;;;;;5049159;28;19938;-46
2022/05/19 03:50:22;;;;;;;;;;;;;;;;;;5049030;28;20430;-54
2022/05/19 03:52:49;;;;;;;;;;;;;;;;;;5050479;28;19909;-51
2022/05/19 03:55:15;;;;;;;;;;;;;;;;;;5050216;28;20367;-51
2022/05/19 03:57:42;;;;;;;;;;;;;;;;;;5050582;28;20011;-56
2022/05/19 04:00:08;;;;;;;;;;;;;;;;;;5047405;28;20362;-56
2022/05/19 04:02:35;;;;;;;;;;;;;;;;;;5050605;28;19951;-55
2022/05/19 04:05:01;;;;;;;;;;;;;;;;;;5049863;28;19909;-57
2022/05/19 04:07:28;;;;;;;;;;;;;;;;;;5049077;28;19916;-56
2022/05/19 04:09:54;;;;;;;;;;;;;;;;;;5047163;28;20114;-49
2022/05/19 04:12:21;;;;;;;;;;;;;;;;;;5049848;28;19984;-55
2022/05/19 04:14:47;;;;;;;;;;;;;;;;;;5050540;28;20007;-46
2022/05/19 04:17:14;;;;;;;;;;;;;;;;;;5049863;28;19917;-50
2022/05/19 04:19:40;;;;;;;;;;;;;;;;;;5046380;28;19917;-47
2022/05/19 04:22:07;;;;;;;;;;;;;;;;;;5049646;28;19909;-56
2022/05/19 04:24:33;;;;;;;;;;;;;;;;;;5050287;28;19912;-49
2022/05/19 04:27:02;;;;;;;;;;;;;;;;;;5050155;28;19925;-53
2022/05/19 04:29:28;;;;;;;;;;;;;;;;;;5046862;28;19918;-45
2022/05/19 04:31:54;;;;;;;;;;;;;;;;;;5050746;28;20228;-42
2022/05/19 04:34:21;;;;;;;;;;;;;;;;;;5051368;28;19908;-50
2022/05/19 04:36:47;;;;;;;;;;;;;;;;;;5051845;28;19986;-52
2022/05/19 04:39:14;;;;;;;;;;;;;;;;;;5051347;28;20012;-53
2022/05/19 04:41:40;;;;;;;;;;;;;;;;;;5051862;28;20461;-56
2022/05/19 04:44:07;;;;;;;;;;;;;;;;;;5051518;28;20348;-50
2022/05/19 04:46:33;;;;;;;;;;;;;;;;;;5051258;28;20352;-46
2022/05/19 04:49:00;;;;;;;;;;;;;;;;;;5050681;28;20310;-59
2022/05/19 04:51:26;;;;;;;;;;;;;;;;;;5051325;28;19962;-49
2022/05/19 04:53:53;;;;;;;;;;;;;;;;;;5051532;28;19909;-46
2022/05/19 04:56:19;;;;;;;;;;;;;;;;;;5051076;28;19913;-50
2022/05/19 04:58:46;;;;;;;;;;;;;;;;;;5050795;28;20395;-52
2022/05/19 05:01:12;;;;;;;;;;;;;;;;;;5052362;28;19909;-47
2022/05/19 05:03:39;;;;;;;;;;;;;;;;;;5051330;28;19913;-46
2022/05/19 05:06:05;;;;;;;;;;;;;;;;;;5051875;28;20083;-52
2022/05/19 05:08:32;;;;;;;;;;;;;;;;;;5051540;28;20417;-50
2022/05/19 05:10:58;;;;;;;;;;;;;;;;;;5050415;28;20418;-52
2022/05/19 05:13:25;;;;;;;;;;;;;;;;;;5051272;28;19974;-54
2022/05/19 05:15:51;;;;;;;;;;;;;;;;;;5051784;28;19909;-57
2022/05/19 05:18:18;;;;;;;;;;;;;;;;;;5051093;28;19909;-53
2022/05/19 05:20:44;;;;;;;;;;;;;;;;;;5055386;28;20275;-56
2022/05/19 05:23:11;;;;;;;;;;;;;;;;;;5055351;28;20007;-53
2022/05/19 05:25:37;;;;;;;;;;;;;;;;;;5055342;28;19992;-51
2022/05/19 05:28:03;;;;;;;;;;;;;;;;;;5055194;28;19916;-51
2022/05/19 05:30:30;;;;;;;;;;;;;;;;;;5054214;28;19913;-57
2022/05/19 05:32:57;;;;;;;;;;;;;;;;;;5054572;28;20267;-49
2022/05/19 05:35:23;;;;;;;;;;;;;;;;;;5054425;28;19909;-52
2022/05/19 05:37:50;;;;;;;;;;;;;;;;;;5054734;28;19944;-54
2022/05/19 05:40:17;;;;;;;;;;;;;;;;;;5054760;28;19932;-48
2022/05/19 05:42:43;;;;;;;;;;;;;;;;;;5049102;28;20107;-49
2022/05/19 05:45:10;;;;;;;;;;;;;;;;;;5052692;28;19928;-46
2022/05/19 05:47:36;;;;;;;;;;;;;;;;;;5053791;28;19916;-54
2022/05/19 05:50:02;;;;;;;;;;;;;;;;;;5050909;28;20309;-46
2022/05/19 05:52:29;;;;;;;;;;;;;;;;;;5050554;28;19913;-51
2022/05/19 05:54:58;;;;;;;;;;;;;;;;;;5052944;28;20058;-50
2022/05/19 05:57:25;;;;;;;;;;;;;;;;;;5052645;28;19916;-47
2022/05/19 05:59:51;;;;;;;;;;;;;;;;;;5049929;28;19954;-52
2022/05/19 06:02:18;;;;;;;;;;;;;;;;;;5051925;28;19917;-50
2022/05/19 06:04:44;;;;;;;;;;;;;;;;;;5051865;28;20278;-43
2022/05/19 06:07:11;;;;;;;;;;;;;;;;;;5052550;28;19927;-49
2022/05/19 06:09:39;;;;;;;;;;;;;;;;;;5050133;28;19920;-49
2022/05/19 06:12:05;;;;;;;;;;;;;;;;;;5052104;28;20386;-51
2022/05/19 06:14:32;;;;;;;;;;;;;;;;;;5052647;28;19909;-50
2022/05/19 06:16:59;;;;;;;;;;;;;;;;;;5053248;28;20011;-53
2022/05/19 06:19:25;;;;;;;;;;;;;;;;;;5049866;28;19909;-45
2022/05/19 06:21:53;;;;;;;;;;;;;;;;;;5052772;28;19955;-47
2022/05/19 06:24:19;;;;;;;;;;;;;;;;;;5052889;28;19916;-46
2022/05/19 06:26:46;;;;;;;;;;;;;;;;;;5052717;28;19963;-48
2022/05/19 06:29:12;;;;;;;;;;;;;;;;;;5048877;28;19948;-53
2022/05/19 06:31:39;;;;;;;;;;;;;;;;;;5051662;28;20271;-49
2022/05/19 06:34:05;;;;;;;;;;;;;;;;;;5049696;28;19912;-58
2022/05/19 06:36:32;;;;;;;;;;;;;;;;;;5053210;28;19916;-56
2022/05/19 06:38:58;;;;;;;;;;;;;;;;;;5053668;28;20356;-58
2022/05/19 06:44:10;;;;;;;;;;;;;;;;;;5053504;28;19955;-59
2022/05/19 06:46:36;;;;;;;;;;;;;;;;;;5053418;28;19955;-50
2022/05/19 06:49:04;;;;;;;;;;;;;;;;;;5053115;28;19916;-57
2022/05/19 06:51:31;;;;;;;;;;;;;;;;;;5053612;28;19948;-58
2022/05/19 06:53:57;;;;;;;;;;;;;;;;;;5053755;28;19916;-55
2022/05/19 06:56:23;;;;;;;;;;;;;;;;;;5052833;28;19943;-56
2022/05/19 06:58:51;;;;;;;;;;;;;;;;;;5051854;28;20291;-59
2022/05/19 07:01:17;;;;;;;;;;;;;;;;;;5051931;28;20000;-62
2022/05/19 07:03:44;;;;;;;;;;;;;;;;;;5053813;28;20003;-56
2022/05/19 07:06:10;;;;;;;;;;;;;;;;;;5052613;28;20444;-56
2022/05/19 07:08:39;;;;;;;;;;;;;;;;;;5052672;28;19915;-59
2022/05/19 07:11:05;;;;;;;;;;;;;;;;;;5052845;28;19955;-57
2022/05/19 07:13:31;;;;;;;;;;;;;;;;;;5052646;28;19956;-58
2022/05/19 07:15:59;;;;;;;;;;;;;;;;;;5053062;28;20356;-59
2022/05/19 07:18:26;;;;;;;;;;;;;;;;;;5052399;28;19909;-54
2022/05/19 07:20:53;;;;;;;;;;;;;;;;;;5052319;28;19992;-57
2022/05/19 07:23:20;;;;;;;;;;;;;;;;;;5052680;28;19928;-57
2022/05/19 07:25:46;;;;;;;;;;;;;;;;;;5052446;28;19964;-62
2022/05/19 07:28:13;;;;;;;;;;;;;;;;;;5052445;28;20267;-56
2022/05/19 07:30:40;;;;;;;;;;;;;;;;;;5053110;28;19912;-46
2022/05/19 07:33:06;;;;;;;;;;;;;;;;;;5052103;28;20317;-51
2022/05/19 07:35:34;;;;;;;;;;;;;;;;;;5052997;28;19913;-50
2022/05/19 07:38:00;;;;;;;;;;;;;;;;;;5052805;28;19953;-48
2022/05/19 07:40:27;;;;;;;;;;;;;;;;;;5048755;28;20009;-58
2022/05/19 07:42:53;;;;;;;;;;;;;;;;;;5048775;28;20366;-56
2022/05/19 07:45:20;;;;;;;;;;;;;;;;;;5051138;28;20325;-56
2022/05/19 07:47:46;;;;;;;;;;;;;;;;;;5050109;28;19986;-51
2022/05/19 07:50:13;;;;;;;;;;;;;;;;;;5050044;28;19912;-48
2022/05/19 07:52:40;;;;;;;;;;;;;;;;;;5047280;28;20342;-52
2022/05/19 07:55:06;;;;;;;;;;;;;;;;;;5051020;28;20229;-47
2022/05/19 07:57:32;;;;;;;;;;;;;;;;;;5050195;28;19919;-55
2022/05/19 07:59:59;;;;;;;;;;;;;;;;;;5049788;28;19909;-51
2022/05/19 08:02:25;;;;;;;;;;;;;;;;;;5047007;28;20031;-57
2022/05/19 08:04:52;;;;;;;;;;;;;;;;;;5049784;28;19909;-61
2022/05/19 08:07:19;;;;;;;;;;;;;;;;;;5049535;28;20307;-52
2022/05/19 08:18:00;;;;;;;;;;;;;;;;;;5048498;28;20000;-56
2022/05/19 08:20:28;;;;;;;;;;;;;;;;;;5049187;28;20041;-59
2022/05/19 08:22:54;;;;;;;;;;;;;;;;;;5045719;28;19970;-52
2022/05/19 08:25:26;;;;;;;;;;;;;;;;;;5047624;28;19917;-46
2022/05/19 08:27:53;;;;;;;;;;;;;;;;;;5052140;28;19956;-46
2022/05/19 08:30:19;;;;;;;;;;;;;;;;;;5051882;28;19924;-57
2022/05/19 08:32:45;;;;;;;;;;;;;;;;;;5051741;28;19932;-53
2022/05/19 08:35:12;;;;;;;;;;;;;;;;;;5051878;28;19936;-51
2022/05/19 08:37:38;;;;;;;;;;;;;;;;;;5052472;28;19917;-53
2022/05/19 08:40:05;;;;;;;;;;;;;;;;;;5051754;28;19920;-51
2022/05/19 08:42:31;;;;;;;;;;;;;;;;;;5052273;28;19908;-54
2022/05/19 08:44:58;;;;;;;;;;;;;;;;;;5052329;28;19916;-52
2022/05/19 08:47:24;;;;;;;;;;;;;;;;;;5051973;28;19920;-44
2022/05/19 08:49:51;;;;;;;;;;;;;;;;;;5052095;28;20409;-50
2022/05/19 08:52:17;;;;;;;;;;;;;;;;;;5050243;28;20058;-55
2022/05/19 08:54:44;;;;;;;;;;;;;;;;;;5053877;28;19913;-51
2022/05/19 08:57:10;;;;;;;;;;;;;;;;;;5054468;28;19991;-54
2022/05/19 08:59:37;;;;;;;;;;;;;;;;;;5055769;28;19915;-44
2022/05/19 09:02:03;;;;;;;;;;;;;;;;;;5055875;28;19927;-52
2022/05/19 09:04:30;;;;;;;;;;;;;;;;;;5055699;28;19913;-43
2022/05/19 09:09:41;;;;;;;;;;;;;;;;;;5055629;28;19942;-51
2022/05/19 09:12:08;;;;;;;;;;;;;;;;;;5055392;28;19908;-47
2022/05/19 09:14:35;;;;;;;;;;;;;;;;;;5055745;28;19917;-46
2022/05/19 09:17:05;;;;;;;;;;;;;;;;;;5055744;28;19962;-51
2022/05/19 09:19:33;;;;;;;;;;;;;;;;;;5055736;28;19915;-48
2022/05/19 09:21:59;;;;;;;;;;;;;;;;;;5055673;28;19999;-58
2022/05/19 09:24:26;;;;;;;;;;;;;;;;;;5055701;28;20367;-40
2022/05/19 09:26:52;;;;;;;;;;;;;;;;;;5055369;28;20371;-43
2022/05/19 09:29:19;;;;;;;;;;;;;;;;;;5055340;28;19999;-49
2022/05/19 09:31:45;;;;;;;;;;;;;;;;;;5055298;28;19908;-50
2022/05/19 09:34:12;;;;;;;;;;;;;;;;;;5055076;28;19927;-48
2022/05/19 09:36:42;;;;;;;;;;;;;;;;;;5053950;28;19954;-56
2022/05/19 09:39:08;;;;;;;;;;;;;;;;;;5055560;28;19905;-52
2022/05/19 09:41:36;;;;;;;;;;;;;;;;;;5055309;28;19962;-43
2022/05/19 09:44:03;;;;;;;;;;;;;;;;;;5055083;28;19934;-48
2022/05/19 09:46:29;;;;;;;;;;;;;;;;;;5051007;28;19924;-51
2022/05/19 09:48:55;;;;;;;;;;;;;;;;;;5054475;28;19958;-57
2022/05/19 09:51:23;;;;;;;;;;;;;;;;;;5053330;28;19913;-36
2022/05/19 09:53:49;;;;;;;;;;;;;;;;;;5052021;28;19913;-48
2022/05/19 09:56:16;;;;;;;;;;;;;;;;;;5054356;28;20271;-37
2022/05/19 09:58:42;;;;;;;;;;;;;;;;;;5053597;28;19909;-42
2022/05/19 10:01:09;;;;;;;;;;;;;;;;;;5050769;28;20347;-37
2022/05/19 10:03:36;;;;;;;;;;;;;;;;;;5053122;28;19909;-38
2022/05/19 10:06:02;;;;;;;;;;;;;;;;;;5054503;28;19928;-53
2022/05/19 10:08:29;;;;;;;;;;;;;;;;;;5050888;28;19927;-39
2022/05/19 10:10:55;;;;;;;;;;;;;;;;;;5052224;28;19958;-41
2022/05/19 10:13:23;;;;;;;;;;;;;;;;;;5052792;28;19921;-42
2022/05/19 10:15:50;;;;;;;;;;;;;;;;;;5052384;28;19912;-41
2022/05/19 10:18:16;;;;;;;;;;;;;;;;;;5051556;28;19912;-38
2022/05/19 10:20:43;;;;;;;;;;;;;;;;;;5050635;28;20310;-36
2022/05/19 10:23:09;;;;;;;;;;;;;;;;;;5052798;28;19958;-40
2022/05/19 10:25:36;;;;;;;;;;;;;;;;;;5052586;28;19943;-41
2022/05/19 10:31:06;;;;;;;;;;;;;;;;;;5049741;28;19920;-46
2022/05/19 10:33:33;;;;;;;;;;;;;;;;;;5052663;28;19919;-41
2022/05/19 10:36:00;;;;;;;;;;;;;;;;;;5052693;28;19923;-56
2022/05/19 10:38:27;;;;;;;;;;;;;;;;;;5053446;28;19908;-55
2022/05/19 10:40:54;;;;;;;;;;;;;;;;;;5050121;28;19909;-53
2022/05/19 10:43:20;;;;;;;;;;;;;;;;;;5051139;28;19912;-52
2022/05/19 10:45:46;;;;;;;;;;;;;;;;;;5051844;28;19909;-49
2022/05/19 10:48:13;;;;;;;;;;;;;;;;;;5052532;28;19962;-54
2022/05/19 10:50:39;;;;;;;;;;;;;;;;;;5051613;28;19916;-56
2022/05/19 10:53:06;;;;;;;;;;;;;;;;;;5049562;28;20394;-62
2022/05/19 10:55:32;;;;;;;;;;;;;;;;;;5051200;28;19913;-58
2022/05/19 10:57:59;;;;;;;;;;;;;;;;;;5051953;28;19912;-58
2022/05/19 11:00:26;;;;;;;;;;;;;;;;;;5051238;28;20048;-58
2022/05/19 11:02:53;;;;;;;;;;;;;;;;;;5049086;28;19908;-49
2022/05/19 11:05:20;;;;;;;;;;;;;;;;;;5052262;28;19998;-59
2022/05/19 11:07:49;;;;;;;;;;;;;;;;;;5053027;28;19931;-59
2022/05/19 11:10:15;;;;;;;;;;;;;;;;;;5053792;28;19909;-58
2022/05/19 11:12:42;;;;;;;;;;;;;;;;;;5053327;28;20279;-60
2022/05/19 11:15:09;;;;;;;;;;;;;;;;;;5053797;28;20387;-60
2022/05/19 11:17:37;;;;;;;;;;;;;;;;;;5052310;28;19947;-59
2022/05/19 11:20:04;;;;;;;;;;;;;;;;;;5049117;28;20007;-55
2022/05/19 11:22:31;;;;;;;;;;;;;;;;;;5052909;28;19916;-56
2022/05/19 11:27:42;;;;;;;;;;;;;;;;;;5050839;28;19928;-53
2022/05/19 11:30:08;;;;;;;;;;;;;;;;;;5051295;28;19913;-51
2022/05/19 11:32:35;;;;;;;;;;;;;;;;;;5051872;28;19909;-44
2022/05/19 11:35:03;;;;;;;;;;;;;;;;;;5048294;28;20418;-49
2022/05/19 11:37:31;;;;;;;;;;;;;;;;;;5051731;28;19908;-41
2022/05/19 11:39:58;;;;;;;;;;;;;;;;;;5051333;28;19916;-46
2022/05/19 11:42:24;;;;;;;;;;;;;;;;;;5051492;28;19932;-40
2022/05/19 11:44:51;;;;;;;;;;;;;;;;;;5048133;28;19916;-40
2022/05/19 11:55:12;;;;;;;;;;;;;;;;;;5051811;28;19923;-45
2022/05/19 11:55:33;;;;;;;;;;;;;;;;;;5047509;28;19916;-43
2022/05/19 11:58:01;;;;;;;;;;;;;;;;;;5051550;28;19913;-45
2022/05/19 12:00:28;;;;;;;;;;;;;;;;;;5050589;28;19908;-43
2022/05/19 12:02:54;;;;;;;;;;;;;;;;;;5051541;28;19947;-43
2022/05/19 12:05:21;;;;;;;;;;;;;;;;;;5048233;28;20367;-47
2022/05/19 12:07:47;;;;;;;;;;;;;;;;;;5051629;28;19928;-59
2022/05/19 12:10:14;;;;;;;;;;;;;;;;;;5051168;28;19916;-53
2022/05/19 12:12:40;;;;;;;;;;;;;;;;;;5051287;28;19971;-52
2022/05/19 12:15:07;;;;;;;;;;;;;;;;;;5052381;28;20340;-54
2022/05/19 12:17:34;;;;;;;;;;;;;;;;;;5052660;28;19909;-52
2022/05/19 12:20:03;;;;;;;;;;;;;;;;;;5051764;28;19913;-52
2022/05/19 12:22:30;;;;;;;;;;;;;;;;;;5052735;28;19909;-54
2022/05/19 12:24:57;;;;;;;;;;;;;;;;;;5052578;28;19917;-53
2022/05/19 12:27:23;;;;;;;;;;;;;;;;;;5052693;28;20003;-50
2022/05/19 12:29:50;;;;;;;;;;;;;;;;;;5056504;28;20146;-49
2022/05/19 12:32:16;;;;;;;;;;;;;;;;;;5056687;28;19931;-54
2022/05/19 12:34:43;;;;;;;;;;;;;;;;;;5056779;28;19915;-55
2022/05/19 12:37:09;;;;;;;;;;;;;;;;;;5056731;28;19908;-54
2022/05/19 12:39:36;;;;;;;;;;;;;;;;;;5056372;28;19954;-50
2022/05/19 12:42:02;;;;;;;;;;;;;;;;;;5056002;28;19909;-52
2022/05/19 12:44:29;;;;;;;;;;;;;;;;;;5056712;28;20382;-48
2022/05/19 12:46:56;;;;;;;;;;;;;;;;;;5056275;28;19924;-55
2022/05/19 12:49:23;;;;;;;;;;;;;;;;;;5056290;28;19909;-50
2022/05/19 12:51:49;;;;;;;;;;;;;;;;;;5056552;28;19995;-47
2022/05/19 12:54:17;;;;;;;;;;;;;;;;;;5056545;28;20425;-55
2022/05/19 12:56:46;;;;;;;;;;;;;;;;;;5056302;28;19909;-57
2022/05/19 12:59:12;;;;;;;;;;;;;;;;;;5056467;28;19909;-55
2022/05/19 13:01:39;;;;;;;;;;;;;;;;;;5055785;28;19909;-53
2022/05/19 13:04:06;;;;;;;;;;;;;;;;;;5056487;28;19909;-52
2022/05/19 13:06:32;;;;;;;;;;;;;;;;;;5056119;28;19920;-48
2022/05/19 13:08:59;;;;;;;;;;;;;;;;;;5056035;28;19948;-54
2022/05/19 13:11:25;;;;;;;;;;;;;;;;;;5055923;28;19955;-47
2022/05/19 13:13:53;;;;;;;;;;;;;;;;;;5056052;28;20395;-53
2022/05/19 13:16:20;;;;;;;;;;;;;;;;;;5055915;28;19913;-48
2022/05/19 13:18:47;;;;;;;;;;;;;;;;;;5056301;28;19909;-54
2022/05/19 13:21:13;;;;;;;;;;;;;;;;;;5055967;28;19955;-52
2022/05/19 13:23:40;;;;;;;;;;;;;;;;;;5055738;28;19943;-56
2022/05/19 13:26:06;;;;;;;;;;;;;;;;;;5055969;28;19917;-54
2022/05/19 13:31:18;;;;;;;;;;;;;;;;;;5055918;28;19986;-48
2022/05/19 13:33:44;;;;;;;;;;;;;;;;;;5055844;28;19917;-53
2022/05/19 13:36:11;;;;;;;;;;;;;;;;;;5056058;28;19920;-50
2022/05/19 13:38:38;;;;;;;;;;;;;;;;;;5055822;28;19909;-59
2022/05/19 13:41:04;;;;;;;;;;;;;;;;;;5054657;28;19909;-58
2022/05/19 13:43:31;;;;;;;;;;;;;;;;;;5055421;28;19917;-45
2022/05/19 13:45:57;;;;;;;;;;;;;;;;;;5055629;28;20035;-46
2022/05/19 13:48:24;;;;;;;;;;;;;;;;;;5055550;28;19948;-53
2022/05/19 13:50:50;;;;;;;;;;;;;;;;;;5055744;28;19913;-51
2022/05/19 13:53:17;;;;;;;;;;;;;;;;;;5055397;28;19995;-56
2022/05/19 13:55:43;;;;;;;;;;;;;;;;;;5055094;28;20025;-54
2022/05/19 13:58:09;;;;;;;;;;;;;;;;;;5055682;28;19920;-48
2022/05/19 14:00:36;;;;;;;;;;;;;;;;;;5055053;28;19909;-52
2022/05/19 14:03:03;;;;;;;;;;;;;;;;;;5055179;28;19915;-55
2022/05/19 14:05:29;;;;;;;;;;;;;;;;;;5053797;28;19915;-56
2022/05/19 14:07:56;;;;;;;;;;;;;;;;;;5055179;28;19959;-54
2022/05/19 14:10:22;;;;;;;;;;;;;;;;;;5055276;28;19909;-50
2022/05/19 14:12:48;;;;;;;;;;;;;;;;;;5054794;28;19913;-54
2022/05/19 14:15:19;;;;;;;;;;;;;;;;;;5054875;28;19913;-54
2022/05/19 14:17:45;;;;;;;;;;;;;;;;;;5054798;28;20275;-51
2022/05/19 14:20:12;;;;;;;;;;;;;;;;;;5054863;28;19909;-55
2022/05/19 14:22:38;;;;;;;;;;;;;;;;;;5054999;28;19909;-50
2022/05/19 14:25:05;;;;;;;;;;;;;;;;;;5055398;28;19913;-51
2022/05/19 14:27:31;;;;;;;;;;;;;;;;;;5054677;28;20413;-56
2022/05/19 14:29:58;;;;;;;;;;;;;;;;;;5054408;28;19909;-57
2022/05/19 14:32:24;;;;;;;;;;;;;;;;;;5054945;28;19956;-58
2022/05/19 14:34:51;;;;;;;;;;;;;;;;;;5054757;28;19927;-56
2022/05/19 14:37:17;;;;;;;;;;;;;;;;;;5054642;28;19909;-53
2022/05/19 14:39:44;;;;;;;;;;;;;;;;;;5054252;28;20307;-54
2022/05/19 14:44:55;;;;;;;;;;;;;;;;;;5054567;28;19955;-55
2022/05/19 14:47:21;;;;;;;;;;;;;;;;;;5054264;28;20270;-41
2022/05/19 14:49:48;;;;;;;;;;;;;;;;;;5054685;28;20257;-58
2022/05/19 14:52:15;;;;;;;;;;;;;;;;;;5054254;28;19977;-54
2022/05/19 14:54:41;;;;;;;;;;;;;;;;;;5054632;28;19915;-46
2022/05/19 14:57:08;;;;;;;;;;;;;;;;;;5054188;28;19915;-56
2022/05/19 14:59:35;;;;;;;;;;;;;;;;;;5053867;28;19909;-55
2022/05/19 15:02:01;;;;;;;;;;;;;;;;;;5054189;28;20095;-53
2022/05/19 15:04:27;;;;;;;;;;;;;;;;;;5054127;28;19916;-44
2022/05/19 15:06:54;;;;;;;;;;;;;;;;;;5053865;28;20012;-51
2022/05/19 15:09:20;;;;;;;;;;;;;;;;;;5053961;28;19919;-54
2022/05/19 15:11:47;;;;;;;;;;;;;;;;;;5054060;28;20423;-57
2022/05/19 15:14:13;;;;;;;;;;;;;;;;;;5051430;28;19921;-58
2022/05/19 15:16:40;;;;;;;;;;;;;;;;;;5053741;28;20383;-48
2022/05/19 15:19:07;;;;;;;;;;;;;;;;;;5053680;28;19909;-58
2022/05/19 15:21:33;;;;;;;;;;;;;;;;;;5053536;28;19913;-48
2022/05/19 15:23:59;;;;;;;;;;;;;;;;;;5053716;28;19936;-50
2022/05/19 15:26:26;;;;;;;;;;;;;;;;;;5053807;28;20356;-54
2022/05/19 15:28:53;;;;;;;;;;;;;;;;;;5052451;28;20377;-58
2022/05/19 15:31:20;;;;;;;;;;;;;;;;;;5053545;28;19909;-51
2022/05/19 15:33:46;;;;;;;;;;;;;;;;;;5053365;28;19924;-49
2022/05/19 15:36:15;;;;;;;;;;;;;;;;;;5053894;28;19909;-51
2022/05/19 15:38:42;;;;;;;;;;;;;;;;;;5053760;28;19915;-55
2022/05/19 15:41:08;;;;;;;;;;;;;;;;;;5053767;28;20004;-51
2022/05/19 15:43:35;;;;;;;;;;;;;;;;;;5053288;28;19909;-56
2022/05/19 15:46:01;;;;;;;;;;;;;;;;;;5053474;28;19908;-51
2022/05/19 15:48:27;;;;;;;;;;;;;;;;;;5053276;28;19916;-51
2022/05/19 15:50:55;;;;;;;;;;;;;;;;;;5053375;28;19916;-50
2022/05/19 15:53:22;;;;;;;;;;;;;;;;;;5053105;28;19915;-51
2022/05/19 15:55:49;;;;;;;;;;;;;;;;;;5053480;28;19947;-49
2022/05/19 15:58:15;;;;;;;;;;;;;;;;;;5053193;28;19909;-59
2022/05/19 16:00:42;;;;;;;;;;;;;;;;;;5053122;28;19955;-53
2022/05/19 16:03:08;;;;;;;;;;;;;;;;;;5052996;28;20329;-57
2022/05/19 16:05:35;;;;;;;;;;;;;;;;;;5053042;28;20272;-57
2022/05/19 16:08:01;;;;;;;;;;;;;;;;;;5053041;28;20003;-55
2022/05/19 16:10:28;;;;;;;;;;;;;;;;;;5053096;28;19909;-54
2022/05/19 16:12:55;;;;;;;;;;;;;;;;;;5052770;28;19928;-57
2022/05/19 16:15:21;;;;;;;;;;;;;;;;;;5052655;28;19916;-43
2022/05/19 16:17:48;;;;;;;;;;;;;;;;;;5053095;28;19913;-49
2022/05/19 16:20:14;;;;;;;;;;;;;;;;;;5053128;28;19909;-46
2022/05/19 16:22:41;;;;;;;;;;;;;;;;;;5052802;28;19912;-52
2022/05/19 16:25:07;;;;;;;;;;;;;;;;;;5052989;28;20038;-56
2022/05/19 16:27:33;;;;;;;;;;;;;;;;;;5052940;28;19923;-56
2022/05/19 16:30:00;;;;;;;;;;;;;;;;;;5052982;28;19908;-48
2022/05/19 16:32:26;;;;;;;;;;;;;;;;;;5053326;28;19908;-50
2022/05/19 16:34:53;;;;;;;;;;;;;;;;;;5053001;28;19948;-58
2022/05/19 16:37:19;;;;;;;;;;;;;;;;;;5053059;28;19915;-50
2022/05/19 16:39:46;;;;;;;;;;;;;;;;;;5052536;28;20023;-51
2022/05/19 16:42:12;;;;;;;;;;;;;;;;;;5052720;28;19908;-56
2022/05/19 16:44:39;;;;;;;;;;;;;;;;;;5052475;28;20359;-58
2022/05/19 16:47:05;;;;;;;;;;;;;;;;;;5052700;28;20095;-50
2022/05/19 16:49:32;;;;;;;;;;;;;;;;;;5052545;28;19916;-58
2022/05/19 16:51:58;;;;;;;;;;;;;;;;;;5053152;28;19923;-61
2022/05/19 16:59:54;;;;;;;;;;;;;;;;;;5052769;28;20406;-57
2022/05/19 17:02:20;;;;;;;;;;;;;;;;;;5052580;28;20447;-60
2022/05/19 17:04:46;;;;;;;;;;;;;;;;;;5052725;28;20322;-58
2022/05/19 17:07:13;;;;;;;;;;;;;;;;;;5052499;28;19948;-56
2022/05/19 17:09:39;;;;;;;;;;;;;;;;;;5052627;28;19913;-56
2022/05/19 17:12:06;;;;;;;;;;;;;;;;;;5052464;28;19996;-58
2022/05/19 17:14:32;;;;;;;;;;;;;;;;;;5053059;28;19966;-52
2022/05/19 17:16:59;;;;;;;;;;;;;;;;;;5056238;28;19909;-57
2022/05/19 17:19:25;;;;;;;;;;;;;;;;;;5056023;28;19953;-49